Duque de Caxias, Brazil
Current Conditions -  °F | °C
As of 7:00 PM on Monday 20 Oct 2014 (Local Time) from SBGL Reporting Station
Overcast Overcast  
Wind Chill: 77°   Ceiling: 4000
Heat Index: 79°   Visibility: 6mi
Dew Point: 63°   Wind: 6mph
Humidity: 61%   Direction: 240°WSW
Pressure: 30"   Gusts: NA
Location:  22.77°S, 43.31°W
Report Text: SBGL 202200Z 24005KT 9999 SCT020 OVC040 25/17 Q1016
Loading
Personal Weather Stations






























Interactive Weather Map New forecast layout! Learn more

10-Day Weather Forecast

Advertisements
Track Severe Weather on mobile